createdAt,value
2023-01-13T00:01:41.090Z,10.90
2023-01-13T00:04:11.783Z,10.90
2023-01-13T00:09:56.180Z,10.90
2023-01-13T00:13:27.316Z,10.90
2023-01-13T00:15:45.427Z,10.90
2023-01-13T00:18:14.193Z,10.90
2023-01-13T00:20:43.938Z,10.90
2023-01-13T00:23:12.171Z,10.90
2023-01-13T00:25:59.955Z,10.90
2023-01-13T00:28:29.306Z,10.90
2023-01-13T00:30:58.618Z,10.90
2023-01-13T00:33:27.536Z,10.90
2023-01-13T00:36:01.557Z,10.90
2023-01-13T00:38:31.442Z,10.90
2023-01-13T00:41:00.616Z,10.80
2023-01-13T00:43:30.380Z,10.80
2023-01-13T00:45:58.685Z,10.80
2023-01-13T00:48:28.154Z,10.80
2023-01-13T00:50:59.284Z,10.80
2023-01-13T00:53:28.671Z,10.70
2023-01-13T00:56:04.496Z,10.70
2023-01-13T00:58:35.216Z,10.80
2023-01-13T01:01:04.796Z,10.70
2023-01-13T01:03:33.211Z,10.80
2023-01-13T01:06:23.446Z,10.70
2023-01-13T01:08:52.579Z,10.70
2023-01-13T01:11:24.078Z,10.70
2023-01-13T01:13:53.685Z,10.80
2023-01-13T01:16:25.195Z,10.80
2023-01-13T01:18:55.369Z,10.80
2023-01-13T01:21:27.294Z,10.80
2023-01-13T01:23:56.706Z,10.80
2023-01-13T01:26:26.902Z,10.90
2023-01-13T01:28:55.725Z,10.80
2023-01-13T01:31:26.361Z,10.90
2023-01-13T01:33:56.408Z,10.80
2023-01-13T01:36:46.574Z,10.90
2023-01-13T01:39:14.733Z,10.90
2023-01-13T01:42:03.445Z,10.90
2023-01-13T01:44:59.022Z,10.90
2023-01-13T01:47:29.622Z,10.90
2023-01-13T01:50:34.006Z,10.90
2023-01-13T01:53:09.956Z,10.90
2023-01-13T01:55:39.557Z,10.90
2023-01-13T01:58:12.352Z,10.90
2023-01-13T02:00:40.877Z,10.90
2023-01-13T02:03:18.522Z,10.90
2023-01-13T02:05:49.323Z,11.00
2023-01-13T02:08:19.224Z,11.00
2023-01-13T02:10:52.652Z,11.00
2023-01-13T02:13:27.473Z,11.00
2023-01-13T02:16:04.576Z,11.00
2023-01-13T02:18:48.261Z,11.00
2023-01-13T02:21:50.225Z,11.00
2023-01-13T02:24:56.970Z,11.00
2023-01-13T02:27:59.033Z,11.00
2023-01-13T02:31:01.093Z,11.10
2023-01-13T02:33:51.672Z,11.00
2023-01-13T02:36:29.819Z,11.00
2023-01-13T02:39:04.620Z,11.00
2023-01-13T02:41:58.690Z,11.00
2023-01-13T02:44:36.166Z,11.00
2023-01-13T02:47:11.437Z,11.10
2023-01-13T02:49:46.304Z,11.10
2023-01-13T02:52:20.261Z,11.00
2023-01-13T02:57:57.204Z,11.10
2023-01-13T03:00:26.751Z,11.10
2023-01-13T03:04:20.959Z,11.10
2023-01-13T03:07:07.957Z,11.10
2023-01-13T03:09:45.271Z,11.10
2023-01-13T03:12:22.326Z,11.00
2023-01-13T03:14:59.261Z,11.00
2023-01-13T03:17:35.847Z,11.10
2023-01-13T03:20:22.866Z,11.10
2023-01-13T03:23:06.882Z,11.10
2023-01-13T03:25:42.180Z,11.10
2023-01-13T03:28:16.676Z,11.00
2023-01-13T03:30:51.458Z,11.10
2023-01-13T03:33:26.228Z,11.10
2023-01-13T03:35:59.942Z,11.10
2023-01-13T03:38:33.665Z,11.10
2023-01-13T03:41:07.185Z,11.10
2023-01-13T03:43:58.638Z,11.00
2023-01-13T03:46:35.383Z,11.00
2023-01-13T03:49:07.682Z,11.00
2023-01-13T03:51:40.662Z,11.10
2023-01-13T03:54:13.881Z,11.00
2023-01-13T03:56:47.219Z,11.10
2023-01-13T03:59:22.692Z,11.00
2023-01-13T04:01:58.483Z,11.00
2023-01-13T04:04:30.966Z,11.00
2023-01-13T04:07:09.516Z,11.00
2023-01-13T04:09:50.026Z,10.90
2023-01-13T04:12:26.477Z,10.90
2023-01-13T04:14:56.798Z,10.90
2023-01-13T04:17:25.382Z,10.80
2023-01-13T04:19:53.541Z,10.80
2023-01-13T04:22:21.802Z,10.80
2023-01-13T04:24:51.300Z,10.80
2023-01-13T04:27:19.517Z,10.80
2023-01-13T04:29:47.763Z,10.80
2023-01-13T04:32:19.131Z,10.70
2023-01-13T04:34:47.316Z,10.70
2023-01-13T04:37:15.650Z,10.60
2023-01-13T04:44:13.406Z,10.60
2023-01-13T04:46:43.359Z,10.70
2023-01-13T04:49:13.865Z,10.70
2023-01-13T04:57:49.167Z,10.80
2023-01-13T05:00:23.810Z,10.80
2023-01-13T05:02:53.862Z,10.80
2023-01-13T05:05:22.154Z,10.80
2023-01-13T05:07:52.316Z,10.80
2023-01-13T05:10:24.430Z,10.90
2023-01-13T05:13:22.832Z,10.90
2023-01-13T05:16:24.674Z,11.00
2023-01-13T05:18:54.670Z,11.00
2023-01-13T05:21:39.882Z,11.00
2023-01-13T05:24:32.158Z,11.00
2023-01-13T05:27:00.468Z,11.00
2023-01-13T05:29:29.244Z,11.10
2023-01-13T05:32:15.843Z,11.10
2023-01-13T05:37:58.556Z,11.10
2023-01-13T05:40:44.315Z,11.10
2023-01-13T05:43:21.568Z,11.10
2023-01-13T05:45:53.016Z,11.20
2023-01-13T05:48:24.754Z,11.20
2023-01-13T05:50:55.127Z,11.20
2023-01-13T05:53:25.089Z,11.20
2023-01-13T05:55:54.303Z,11.30
2023-01-13T05:58:25.586Z,11.30
2023-01-13T06:00:55.710Z,11.20
2023-01-13T06:03:27.346Z,11.20
2023-01-13T06:09:58.008Z,11.20
2023-01-13T06:12:26.515Z,11.20
2023-01-13T06:14:54.839Z,11.20
2023-01-13T06:31:29.854Z,11.20
2023-01-13T06:34:03.455Z,11.20
2023-01-13T06:36:40.037Z,11.20
2023-01-13T06:39:09.479Z,11.20
2023-01-13T06:42:03.945Z,11.20
2023-01-13T06:44:32.348Z,11.20
2023-01-13T06:47:02.059Z,11.20
2023-01-13T06:49:30.863Z,11.20
2023-01-13T06:51:59.184Z,11.20
2023-01-13T06:54:27.941Z,11.20
2023-01-13T06:56:56.144Z,11.30
2023-01-13T06:59:27.234Z,11.30
2023-01-13T07:01:56.295Z,11.30
2023-01-13T07:04:26.302Z,11.30
2023-01-13T07:06:55.304Z,11.30
2023-01-13T07:09:24.507Z,11.30
2023-01-13T07:11:52.870Z,11.30
2023-01-13T07:14:38.636Z,11.20
2023-01-13T07:17:09.492Z,11.20
2023-01-13T07:19:39.270Z,11.30
2023-01-13T07:22:10.436Z,11.30
2023-01-13T07:24:38.797Z,11.20
2023-01-13T07:27:08.817Z,11.20
2023-01-13T07:29:37.598Z,11.20
2023-01-13T07:32:23.873Z,11.30
2023-01-13T07:35:27.403Z,11.30
2023-01-13T07:37:55.618Z,11.20
2023-01-13T07:40:23.909Z,11.20
2023-01-13T07:43:09.699Z,11.20
2023-01-13T07:45:38.124Z,11.30
2023-01-13T07:48:07.603Z,11.30
2023-01-13T07:50:44.063Z,11.30
2023-01-13T07:54:52.117Z,11.30
2023-01-13T07:57:20.671Z,11.30
2023-01-13T07:59:49.256Z,11.30
2023-01-13T08:03:01.091Z,11.20
2023-01-13T08:05:30.119Z,11.20
2023-01-13T08:08:07.130Z,11.30
2023-01-13T08:12:10.782Z,11.30
2023-01-13T08:13:58.551Z,11.30
2023-01-13T08:16:27.133Z,11.30
2023-01-13T08:38:35.377Z,11.20
2023-01-13T08:42:21.375Z,11.30
2023-01-13T08:44:58.635Z,11.20
2023-01-13T08:47:29.227Z,11.10
2023-01-13T08:50:00.322Z,11.10
2023-01-13T08:52:31.190Z,11.00
2023-01-13T08:55:10.220Z,11.00
2023-01-13T08:57:53.092Z,10.90
2023-01-13T09:00:35.448Z,10.80
2023-01-13T09:03:04.871Z,10.70
2023-01-13T09:05:33.330Z,10.60
2023-01-13T09:08:01.906Z,10.50
2023-01-13T09:10:58.177Z,10.40
2023-01-13T09:13:41.480Z,10.20
2023-01-13T09:16:23.925Z,10.10
2023-01-13T09:18:53.671Z,9.90
2023-01-13T09:21:39.639Z,9.70
2023-01-13T09:24:18.426Z,9.60
2023-01-13T09:26:51.406Z,9.50
2023-01-13T09:29:31.045Z,9.50
2023-01-13T09:32:08.771Z,9.50
2023-01-13T09:35:05.305Z,9.40
2023-01-13T09:37:39.098Z,9.40
2023-01-13T09:40:17.386Z,9.40
2023-01-13T09:43:11.315Z,9.40
2023-01-13T09:45:50.368Z,9.40
2023-01-13T09:48:25.715Z,9.50
2023-01-13T09:51:09.842Z,9.50
2023-01-13T09:53:45.144Z,9.60
2023-01-13T09:56:13.732Z,9.70
2023-01-13T09:58:51.455Z,9.60
2023-01-13T10:01:48.241Z,9.60
2023-01-13T10:04:26.949Z,9.70
2023-01-13T10:07:50.162Z,9.70
2023-01-13T10:10:56.730Z,9.70
2023-01-13T10:13:33.646Z,9.70
2023-01-13T10:17:16.780Z,9.70
2023-01-13T10:23:34.435Z,9.80
2023-01-13T10:27:04.935Z,9.80
2023-01-13T11:00:19.096Z,10.10
2023-01-13T11:03:17.991Z,10.20
2023-01-13T11:05:52.890Z,10.20
2023-01-13T11:08:28.892Z,10.30
2023-01-13T11:11:01.897Z,10.20
2023-01-13T11:14:00.208Z,10.20
2023-01-13T11:16:33.667Z,10.20
2023-01-13T11:19:14.481Z,10.20
2023-01-13T11:21:53.417Z,10.10
2023-01-13T11:24:30.090Z,10.00
2023-01-13T11:27:07.393Z,9.90
2023-01-13T11:29:44.513Z,9.90
2023-01-13T11:32:19.924Z,9.80
2023-01-13T11:34:53.781Z,9.80
2023-01-13T11:37:28.199Z,9.70
2023-01-13T11:40:06.421Z,9.60
2023-01-13T11:42:43.122Z,9.60
2023-01-13T11:45:22.424Z,9.60
2023-01-13T11:47:57.198Z,9.60
2023-01-13T11:50:35.128Z,9.50
2023-01-13T11:53:21.683Z,9.50
2023-01-13T11:56:06.845Z,9.50
2023-01-13T11:59:16.668Z,9.50
2023-01-13T12:02:18.380Z,9.60
2023-01-13T12:05:00.560Z,9.50
2023-01-13T12:07:44.388Z,9.50
2023-01-13T12:10:23.998Z,9.60
2023-01-13T12:13:00.261Z,9.60
2023-01-13T12:16:00.929Z,9.70
2023-01-13T12:19:09.905Z,10.00
2023-01-13T12:21:44.462Z,10.20
2023-01-13T12:24:27.945Z,10.50
2023-01-13T12:27:03.095Z,10.50
2023-01-13T12:29:34.588Z,10.50
2023-01-13T12:32:11.589Z,10.40
2023-01-13T12:35:12.634Z,10.30
2023-01-13T12:37:54.155Z,10.30
2023-01-13T12:40:51.555Z,10.30
2023-01-13T12:43:41.498Z,10.20
2023-01-13T12:46:41.148Z,10.20
2023-01-13T12:49:36.520Z,10.20
2023-01-13T12:52:49.891Z,10.10
2023-01-13T12:55:34.276Z,10.10
2023-01-13T12:58:45.120Z,10.10
2023-01-13T13:01:43.508Z,10.10
2023-01-13T13:04:43.982Z,10.10
2023-01-13T13:07:23.697Z,10.10
2023-01-13T13:10:20.636Z,10.20
2023-01-13T13:13:36.268Z,10.20
2023-01-13T13:16:51.710Z,10.30
2023-01-13T13:23:54.015Z,10.20
2023-01-13T13:26:38.617Z,10.10
2023-01-13T13:33:03.990Z,9.80
2023-01-13T13:35:52.905Z,9.80
2023-01-13T13:38:57.740Z,9.80
2023-01-13T13:41:48.618Z,9.90
2023-01-13T13:44:40.454Z,9.90
2023-01-13T13:50:22.254Z,10.20
2023-01-13T13:53:11.840Z,10.30
2023-01-13T13:56:01.094Z,10.40
2023-01-13T13:58:38.425Z,10.50
2023-01-13T14:01:11.113Z,10.50
2023-01-13T14:03:52.161Z,10.40
2023-01-13T14:06:32.978Z,10.40
2023-01-13T14:09:20.257Z,10.30
2023-01-13T14:12:38.108Z,10.30
2023-01-13T14:15:44.944Z,10.20
2023-01-13T14:19:47.046Z,10.10
2023-01-13T14:21:47.914Z,10.10
2023-01-13T14:25:38.318Z,10.10
2023-01-13T14:28:33.830Z,10.10
2023-01-13T14:31:52.844Z,10.00
2023-01-13T14:34:38.026Z,9.90
2023-01-13T14:43:51.821Z,9.80
2023-01-13T14:46:44.164Z,9.90
2023-01-13T14:49:51.446Z,9.90
2023-01-13T14:52:25.563Z,9.80
2023-01-13T14:56:53.228Z,9.70
2023-01-13T14:58:47.326Z,9.70
2023-01-13T15:02:19.275Z,9.50
2023-01-13T15:04:59.767Z,9.30
2023-01-13T15:08:12.325Z,9.20
2023-01-13T15:11:16.978Z,9.00
2023-01-13T15:14:06.683Z,8.90
2023-01-13T15:16:42.868Z,8.80
2023-01-13T15:19:22.445Z,8.70
2023-01-13T15:21:56.834Z,8.60
2023-01-13T15:24:43.502Z,8.50
2023-01-13T15:27:22.470Z,8.40
2023-01-13T15:29:53.383Z,8.30
2023-01-13T15:32:24.781Z,8.20
2023-01-13T15:34:58.890Z,8.20
2023-01-13T15:37:32.313Z,8.00
2023-01-13T15:40:16.350Z,8.00
2023-01-13T15:43:44.837Z,7.90
2023-01-13T15:46:44.169Z,7.80
2023-01-13T15:49:22.300Z,7.70
2023-01-13T15:54:40.922Z,7.60
2023-01-13T15:57:14.262Z,7.50
2023-01-13T15:59:47.389Z,7.50
2023-01-13T16:02:18.200Z,7.40
2023-01-13T16:04:47.091Z,7.30
2023-01-13T16:07:18.599Z,7.30
2023-01-13T16:09:48.425Z,7.20
2023-01-13T16:12:17.482Z,7.20
2023-01-13T16:14:46.138Z,7.10
2023-01-13T16:17:19.793Z,7.10
2023-01-13T16:19:51.572Z,7.00
2023-01-13T16:22:20.074Z,7.10
2023-01-13T16:24:49.842Z,7.10
2023-01-13T16:27:26.963Z,7.30
2023-01-13T16:29:55.465Z,7.30
2023-01-13T16:32:23.932Z,7.40
2023-01-13T16:34:54.255Z,7.40
2023-01-13T16:37:25.214Z,7.50
2023-01-13T16:39:55.888Z,7.40
2023-01-13T16:42:24.581Z,7.40
2023-01-13T16:44:52.951Z,7.40
2023-01-13T16:47:22.821Z,7.30
2023-01-13T16:49:51.531Z,7.30
2023-01-13T16:52:19.714Z,7.30
2023-01-13T16:54:48.240Z,7.20
2023-01-13T16:57:18.080Z,7.20
2023-01-13T16:59:46.995Z,7.10
2023-01-13T17:02:20.183Z,7.10
2023-01-13T17:04:49.255Z,7.00
2023-01-13T17:07:18.902Z,7.00
2023-01-13T17:09:47.757Z,6.90
2023-01-13T17:12:19.494Z,6.80
2023-01-13T17:14:47.885Z,6.80
2023-01-13T17:17:23.852Z,6.70
2023-01-13T17:19:58.375Z,6.70
2023-01-13T17:22:26.759Z,6.70
2023-01-13T17:24:55.719Z,6.70
2023-01-13T17:27:25.909Z,6.70
2023-01-13T17:29:54.465Z,6.80
2023-01-13T17:32:24.124Z,6.70
2023-01-13T17:34:55.319Z,6.70
2023-01-13T17:37:23.887Z,6.60
2023-01-13T17:40:06.119Z,6.60
2023-01-13T17:42:41.464Z,6.60
2023-01-13T17:45:12.414Z,6.60
2023-01-13T17:47:43.117Z,6.60
2023-01-13T17:50:12.224Z,6.60
2023-01-13T17:52:40.605Z,6.70
2023-01-13T17:55:09.974Z,6.70
2023-01-13T17:57:39.609Z,6.80
2023-01-13T18:00:12.075Z,6.80
2023-01-13T18:02:43.426Z,6.90
2023-01-13T18:05:12.913Z,7.00
2023-01-13T18:07:41.465Z,7.10
2023-01-13T18:10:12.329Z,7.20
2023-01-13T18:12:42.358Z,7.20
2023-01-13T18:15:11.471Z,7.30
2023-01-13T18:17:40.550Z,7.30
2023-01-13T18:20:31.984Z,7.30
2023-01-13T18:23:18.231Z,7.30
2023-01-13T18:26:05.208Z,7.40
2023-01-13T18:28:37.500Z,7.40
2023-01-13T18:31:06.229Z,7.40
2023-01-13T18:33:34.768Z,7.40
2023-01-13T18:36:09.044Z,7.40
2023-01-13T18:38:37.425Z,7.40
2023-01-13T18:41:26.597Z,7.40
2023-01-13T18:43:56.313Z,7.40
2023-01-13T18:46:26.087Z,7.40
2023-01-13T18:48:54.454Z,7.40
2023-01-13T18:51:23.507Z,7.30
2023-01-13T18:53:53.920Z,7.50
2023-01-13T18:56:24.790Z,7.50
2023-01-13T18:58:53.459Z,7.60
2023-01-13T19:01:26.236Z,7.70
2023-01-13T19:03:58.617Z,7.70
2023-01-13T19:06:29.587Z,7.70
2023-01-13T19:09:01.762Z,7.70
2023-01-13T19:11:31.378Z,7.70
2023-01-13T19:13:59.982Z,7.80
2023-01-13T19:16:30.185Z,7.80
2023-01-13T19:18:59.509Z,7.80
2023-01-13T19:21:27.719Z,7.90
2023-01-13T19:23:56.642Z,7.90
2023-01-13T19:26:25.451Z,7.90
2023-01-13T19:28:56.433Z,7.90
2023-01-13T19:31:27.311Z,7.90
2023-01-13T19:33:57.794Z,7.90
2023-01-13T19:36:27.198Z,8.00
2023-01-13T19:38:56.127Z,8.00
2023-01-13T19:41:42.009Z,8.00
2023-01-13T19:44:30.232Z,8.00
2023-01-13T19:46:58.706Z,7.90
2023-01-13T19:49:28.419Z,7.90
2023-01-13T19:51:56.670Z,7.90
2023-01-13T19:54:25.016Z,7.90
2023-01-13T19:56:53.641Z,7.90
2023-01-13T19:59:28.813Z,7.80
2023-01-13T20:01:57.757Z,7.80
2023-01-13T20:04:33.715Z,7.80
2023-01-13T20:07:01.993Z,7.80
2023-01-13T20:09:32.014Z,7.80
2023-01-13T20:12:00.477Z,7.80
2023-01-13T20:14:28.686Z,7.80
2023-01-13T20:16:56.917Z,7.70
2023-01-13T20:19:25.163Z,7.70
2023-01-13T20:21:54.747Z,7.70
2023-01-13T20:24:24.613Z,7.70
2023-01-13T20:26:53.686Z,7.70
2023-01-13T20:29:22.560Z,7.70
2023-01-13T20:31:51.401Z,7.70
2023-01-13T20:34:19.779Z,7.70
2023-01-13T20:36:49.397Z,7.70
2023-01-13T20:39:21.160Z,7.70
2023-01-13T20:42:07.302Z,7.70
2023-01-13T20:44:35.567Z,7.70
2023-01-13T20:47:04.722Z,7.70
2023-01-13T20:49:34.249Z,7.70
2023-01-13T20:52:03.614Z,7.70
2023-01-13T20:54:33.240Z,7.60
2023-01-13T20:57:01.697Z,7.50
2023-01-13T20:59:29.980Z,7.40
2023-01-13T21:01:58.120Z,7.40
2023-01-13T21:04:26.696Z,7.30
2023-01-13T21:06:56.084Z,7.30
2023-01-13T21:09:26.545Z,7.30
2023-01-13T21:12:14.245Z,7.20
2023-01-13T21:15:00.141Z,7.30
2023-01-13T21:17:46.914Z,7.30
2023-01-13T21:20:16.142Z,7.30
2023-01-13T21:22:46.887Z,7.20
2023-01-13T21:25:16.705Z,7.00
2023-01-13T21:27:46.610Z,7.00
2023-01-13T21:30:18.141Z,7.00
2023-01-13T21:32:49.809Z,6.90
2023-01-13T21:35:18.288Z,6.90
2023-01-13T21:37:46.621Z,6.90
2023-01-13T21:40:15.899Z,6.90
2023-01-13T21:43:02.920Z,6.80
2023-01-13T21:45:49.139Z,6.80
2023-01-13T21:48:17.333Z,6.80
2023-01-13T21:50:46.205Z,6.80
2023-01-13T21:53:14.586Z,6.80
2023-01-13T21:55:42.881Z,6.80
2023-01-13T21:58:15.142Z,6.70
2023-01-13T22:00:46.020Z,6.70
2023-01-13T22:03:18.501Z,6.80
2023-01-13T22:05:47.265Z,6.70
2023-01-13T22:08:15.451Z,6.80
2023-01-13T22:10:57.290Z,6.70
2023-01-13T22:13:45.615Z,6.80
2023-01-13T22:16:14.539Z,6.70
2023-01-13T22:18:43.220Z,6.70
2023-01-13T22:21:11.817Z,6.80
2023-01-13T22:23:40.223Z,6.80
2023-01-13T22:26:09.727Z,6.90
2023-01-13T22:28:42.972Z,6.90
2023-01-13T22:31:12.828Z,6.90
2023-01-13T22:33:42.532Z,6.90
2023-01-13T22:36:11.677Z,6.90
2023-01-13T22:38:40.563Z,6.90
2023-01-13T22:41:10.577Z,7.00
2023-01-13T22:43:40.786Z,7.00
2023-01-13T22:46:11.257Z,7.10
2023-01-13T22:48:40.492Z,7.10
2023-01-13T22:51:11.431Z,7.10
2023-01-13T22:53:40.275Z,7.10
2023-01-13T22:56:09.322Z,7.10
2023-01-13T22:58:46.513Z,7.10
2023-01-13T23:01:28.220Z,7.10
2023-01-13T23:04:01.125Z,7.10
2023-01-13T23:06:31.553Z,7.10
2023-01-13T23:08:59.887Z,7.10
2023-01-13T23:11:42.885Z,7.10
2023-01-13T23:14:15.638Z,7.00
2023-01-13T23:16:43.907Z,6.90
2023-01-13T23:19:12.556Z,6.80
2023-01-13T23:21:46.242Z,6.80
2023-01-13T23:24:14.543Z,6.70
2023-01-13T23:26:42.880Z,6.60
2023-01-13T23:29:14.286Z,6.50
2023-01-13T23:31:43.252Z,6.40
2023-01-13T23:34:11.527Z,6.30
2023-01-13T23:36:41.741Z,6.30
2023-01-13T23:39:10.001Z,6.30
2023-01-13T23:41:38.181Z,6.20
2023-01-13T23:44:07.058Z,6.20
2023-01-13T23:46:36.951Z,6.20
2023-01-13T23:49:05.552Z,6.20
2023-01-13T23:51:34.065Z,6.20
2023-01-13T23:54:02.541Z,6.20
2023-01-13T23:56:32.505Z,6.20
2023-01-13T23:59:00.849Z,6.30
